Time;durP1;ratioP1;P1;durP2;ratioP2;P2;SDS_P1;SDS_P2;PMS_P1;PMS_P2;Temp;Humidity;BMP_temperature;BMP_pressure;BME280_temperature;BME280_humidity;BME280_pressure;Samples;Min_cycle;Max_cycle;Signal;HPM_P1;HPM_P2
2023/09/04 00:19:02;;;;;;;5.10;4.30;;;;;;;13.44;71.28;101388.52;217493;1254;60634;-79
2023/09/04 07:43:08;;;;;;;7.80;3.20;;;;;;;19.94;65.43;101653.51;219003;1251;60797;-74
2023/09/04 07:47:59;;;;;;;5.10;2.90;;;;;;;20.03;64.95;101652.93;219023;1251;60474;-76
2023/09/04 07:53:29;;;;;;;3.20;2.40;;;;;;;20.07;64.03;101657.30;219325;1244;60451;-74
2023/09/04 07:58:30;;;;;;;5.10;2.10;;;;;;;20.16;63.41;101648.59;219515;1245;60594;-76
2023/09/04 08:17:27;;;;;;;;;;;;;;;;;;;;;
2023/09/04 08:22:18;;;;;;;4.30;2.30;;;;;;;20.63;61.50;101631.29;219983;1243;60460;-76
2023/09/04 08:27:10;;;;;;;4.80;2.20;;;;;;;20.72;61.69;101632.44;219894;1245;60641;-76
2023/09/04 08:32:02;;;;;;;3.60;1.90;;;;;;;20.79;60.82;101631.48;219897;1247;60435;-75
2023/09/04 08:36:55;;;;;;;5.70;1.90;;;;;;;20.90;60.55;101640.52;219736;1244;72858;-76
2023/09/04 08:41:51;;;;;;;4.40;2.40;;;;;;;21.02;59.71;101644.98;220267;1242;72502;-75
2023/09/04 08:46:51;;;;;;;3.70;2.00;;;;;;;21.03;59.65;101652.72;220612;1242;60477;-76
2023/09/04 08:51:52;;;;;;;4.70;2.20;;;;;;;20.99;59.54;101659.81;220794;1242;67162;-76
2023/09/04 08:56:47;;;;;;;4.90;2.70;;;;;;;21.01;59.44;101662.08;222026;1231;60420;-77
2023/09/04 09:08:59;;;;;;;5.30;2.30;;;;;;;21.40;59.07;101659.13;218009;1251;73934;-77
2023/09/04 09:34:13;;;;;;;5.90;2.70;;;;;;;21.92;57.58;101665.49;215798;1263;72322;-77
2023/09/04 09:52:22;;;;;;;4.40;2.90;;;;;;;21.35;56.94;101666.61;216574;1257;65560;-77
2023/09/04 10:11:10;;;;;;;6.20;2.70;;;;;;;20.97;58.06;101669.35;217466;1254;71899;-77
2023/09/04 10:16:07;;;;;;;4.10;2.20;;;;;;;24.25;54.37;101655.59;217522;1253;60430;-77
2023/09/04 10:21:01;;;;;;;3.50;2.10;;;;;;;27.67;50.39;101650.48;217882;1249;67255;-77
2023/09/04 10:26:01;;;;;;;6.10;2.40;;;;;;;27.98;48.19;101646.04;219191;1243;60870;-77
2023/09/04 10:30:56;;;;;;;4.00;2.30;;;;;;;29.49;46.18;101634.30;219924;1243;73672;-78
2023/09/04 10:35:48;;;;;;;2.70;2.20;;;;;;;31.84;43.64;101632.08;219921;1247;73036;-77
2023/09/04 10:40:41;;;;;;;3.70;2.40;;;;;;;33.11;41.56;101634.31;220349;1241;60498;-77
2023/09/04 10:45:32;;;;;;;3.00;2.50;;;;;;;33.48;40.29;101640.21;221355;1231;60827;-77
2023/09/04 10:50:40;;;;;;;4.70;2.40;;;;;;;33.44;39.11;101644.48;221928;1231;60436;-77
2023/09/04 10:55:33;;;;;;;4.20;2.40;;;;;;;29.91;40.76;101652.83;222052;1231;72211;-77
2023/09/04 11:00:29;;;;;;;2.80;2.10;;;;;;;29.63;40.80;101642.95;221974;1235;72335;-78
2023/09/04 11:05:20;;;;;;;5.40;2.30;;;;;;;31.77;38.83;101644.48;222053;1231;60418;-78
2023/09/04 11:10:13;;;;;;;8.10;2.80;;;;;;;32.55;37.74;101638.00;221944;1232;60454;-78
2023/09/04 11:15:15;;;;;;;4.60;2.80;;;;;;;31.93;37.80;101646.83;222018;1231;60423;-78
2023/09/04 11:20:36;;;;;;;3.10;2.00;;;;;;;32.88;37.34;101639.17;221915;1231;73983;-78
2023/09/04 11:25:28;;;;;;;2.40;1.80;;;;;;;33.41;36.19;101626.14;221747;1231;70803;-78
2023/09/04 11:30:24;;;;;;;4.20;2.40;;;;;;;33.58;35.42;101627.33;221997;1231;60519;-78
2023/09/04 12:41:13;;;;;;;4.40;2.90;;;;;;;26.78;40.14;101605.11;216204;1257;67540;-78
2023/09/04 12:46:48;;;;;;;3.90;2.60;;;;;;;26.90;40.55;101605.02;216600;1256;60638;-77
2023/09/04 12:51:42;;;;;;;3.50;2.60;;;;;;;26.90;41.19;101608.41;216629;1257;74816;-78
2023/09/04 12:56:36;;;;;;;4.10;2.50;;;;;;;26.82;40.93;101612.11;216580;1257;72760;-78
2023/09/04 13:01:28;;;;;;;2.90;2.10;;;;;;;26.71;40.40;101595.77;216985;1251;60843;-78
2023/09/04 13:06:30;;;;;;;4.90;2.70;;;;;;;26.74;40.46;101596.02;217925;1251;60489;-79
2023/09/04 15:49:54;;;;;;;2.30;2.10;;;;;;;24.18;41.83;101586.35;215831;1264;67088;-81
2023/09/04 17:25:23;;;;;;;6.40;3.00;;;;;;;18.33;55.04;101633.30;217889;1251;65493;-80
2023/09/04 17:49:05;;;;;;;;;;;;;;;;;;;;;
2023/09/04 19:39:57;;;;;;;;;;;;;;;;;;;;;
2023/09/04 19:59:01;;;;;;;7.70;7.00;;;;;;;14.20;64.75;101708.16;215837;1267;73544;-81
2023/09/04 20:35:49;;;;;;;8.70;7.40;;;;;;;13.68;65.74;101705.79;221111;1237;71918;-80
